createdAt,value
2023-04-03T00:00:55.849Z,27.90
2023-04-03T00:01:55.938Z,31.00
2023-04-03T00:02:55.879Z,28.30
2023-04-03T00:03:55.925Z,30.60
2023-04-03T00:04:55.782Z,29.50
2023-04-03T00:05:55.792Z,30.60
2023-04-03T00:06:55.774Z,30.40
2023-04-03T00:07:55.801Z,31.20
2023-04-03T00:08:55.741Z,28.50
2023-04-03T00:09:55.737Z,31.50
2023-04-03T00:10:55.713Z,32.40
2023-04-03T00:11:55.692Z,30.00
2023-04-03T00:12:55.689Z,30.80
2023-04-03T00:13:55.707Z,31.70
2023-04-03T00:14:55.664Z,29.90
2023-04-03T00:15:55.634Z,29.50
2023-04-03T00:16:55.658Z,32.50
2023-04-03T00:17:55.670Z,29.70
2023-04-03T00:18:55.636Z,31.50
2023-04-03T00:19:55.607Z,30.70
2023-04-03T00:20:55.615Z,30.70
2023-04-03T00:21:55.582Z,28.90
2023-04-03T00:22:55.557Z,30.00
2023-04-03T00:23:55.562Z,29.10
2023-04-03T00:24:55.518Z,30.60
2023-04-03T00:25:55.540Z,29.70
2023-04-03T00:26:55.525Z,30.00
2023-04-03T00:27:55.517Z,30.60
2023-04-03T00:28:55.547Z,30.50
2023-04-03T00:29:55.472Z,30.70
2023-04-03T00:31:10.157Z,30.70
2023-04-03T00:31:55.454Z,29.70
2023-04-03T00:32:55.455Z,30.40
2023-04-03T00:33:55.485Z,30.90
2023-04-03T00:34:55.391Z,29.80
2023-04-03T00:35:55.457Z,30.60
2023-04-03T00:36:55.498Z,29.80
2023-04-03T00:37:55.368Z,30.30
2023-04-03T00:38:55.387Z,29.30
2023-04-03T00:39:55.374Z,29.10
2023-04-03T00:40:55.315Z,30.30
2023-04-03T00:41:55.330Z,28.90
2023-04-03T00:42:55.301Z,30.40
2023-04-03T00:43:55.326Z,29.40
2023-04-03T00:44:55.264Z,29.60
2023-04-03T00:45:55.295Z,29.50
2023-04-03T00:46:55.236Z,30.10
2023-04-03T00:47:55.262Z,30.00
2023-04-03T00:48:55.218Z,30.10
2023-04-03T00:49:55.242Z,30.70
2023-04-03T00:50:55.194Z,29.80
2023-04-03T00:51:55.190Z,29.40
2023-04-03T00:52:55.161Z,28.70
2023-04-03T00:53:55.194Z,32.10
2023-04-03T00:54:55.136Z,31.40
2023-04-03T00:55:55.167Z,29.00
2023-04-03T00:56:55.153Z,32.40
2023-04-03T00:57:55.121Z,29.40
2023-04-03T00:58:55.090Z,29.50
2023-04-03T00:59:55.092Z,30.00
2023-04-03T01:00:55.087Z,29.70
2023-04-03T01:01:55.115Z,29.90
2023-04-03T01:02:55.135Z,29.50
2023-04-03T01:03:55.066Z,31.20
2023-04-03T01:04:55.026Z,29.50
2023-04-03T01:05:55.043Z,30.30
2023-04-03T01:06:54.984Z,29.40
2023-04-03T01:07:54.995Z,31.20
2023-04-03T01:08:54.990Z,28.90
2023-04-03T01:09:55.002Z,29.50
2023-04-03T01:10:54.960Z,30.20
2023-04-03T01:11:54.961Z,31.40
2023-04-03T01:12:54.943Z,31.60
2023-04-03T01:13:54.951Z,31.00
2023-04-03T01:14:54.941Z,30.40
2023-04-03T01:15:55.057Z,32.50
2023-04-03T01:16:54.906Z,31.00
2023-04-03T01:17:54.941Z,32.20
2023-04-03T01:18:54.874Z,30.70
2023-04-03T01:19:54.867Z,30.70
2023-04-03T01:20:54.866Z,33.50
2023-04-03T01:21:54.844Z,32.20
2023-04-03T01:22:54.828Z,32.30
2023-04-03T01:23:54.806Z,32.00
2023-04-03T01:24:54.778Z,33.40
2023-04-03T01:25:54.771Z,32.80
2023-04-03T01:26:54.767Z,30.60
2023-04-03T01:27:54.789Z,31.60
2023-04-03T01:28:54.758Z,31.00
2023-04-03T01:29:54.725Z,31.60
2023-04-03T01:30:54.723Z,30.10
2023-04-03T01:31:54.752Z,32.60
2023-04-03T01:32:54.748Z,31.40
2023-04-03T01:33:54.701Z,31.40
2023-04-03T01:34:54.701Z,30.50
2023-04-03T01:35:54.705Z,31.70
2023-04-03T01:36:54.679Z,31.40
2023-04-03T01:37:54.620Z,30.80
2023-04-03T01:38:54.605Z,30.00
2023-04-03T01:39:54.580Z,32.30
2023-04-03T01:40:54.640Z,32.80
2023-04-03T01:41:54.612Z,29.80
2023-04-03T01:42:54.602Z,30.90
2023-04-03T01:43:54.569Z,33.40
2023-04-03T01:44:54.533Z,31.20
2023-04-03T01:45:54.575Z,32.50
2023-04-03T01:46:54.500Z,31.20
2023-04-03T01:47:54.521Z,34.10
2023-04-03T01:48:54.518Z,31.30
2023-04-03T01:49:54.479Z,30.30
2023-04-03T01:50:54.464Z,32.60
2023-04-03T01:51:54.456Z,31.60
2023-04-03T01:52:54.416Z,31.50
2023-04-03T01:53:54.443Z,31.00
2023-04-03T01:54:54.435Z,32.10
2023-04-03T01:55:54.368Z,30.50
2023-04-03T01:56:54.488Z,31.40
2023-04-03T01:57:54.369Z,31.00
2023-04-03T01:58:54.371Z,29.60
2023-04-03T01:59:54.348Z,31.10
2023-04-03T02:00:54.595Z,29.50
2023-04-03T02:01:54.353Z,32.00
2023-04-03T02:02:54.319Z,31.00
2023-04-03T02:03:54.314Z,31.80
2023-04-03T02:04:54.292Z,32.30
2023-04-03T02:05:54.287Z,32.00
2023-04-03T02:06:54.313Z,30.80
2023-04-03T02:07:54.277Z,32.40
2023-04-03T02:08:54.261Z,32.30
2023-04-03T02:09:54.228Z,32.60
2023-04-03T02:10:54.265Z,31.80
2023-04-03T02:11:54.216Z,32.40
2023-04-03T02:12:54.189Z,34.50
2023-04-03T02:13:54.253Z,32.60
2023-04-03T02:14:54.149Z,31.10
2023-04-03T02:15:54.188Z,31.90
2023-04-03T02:16:54.271Z,31.30
2023-04-03T02:17:54.192Z,31.50
2023-04-03T02:18:54.144Z,32.10
2023-04-03T02:19:54.114Z,33.20
2023-04-03T02:20:54.098Z,31.40
2023-04-03T02:21:54.101Z,31.70
2023-04-03T02:22:54.079Z,31.40
2023-04-03T02:23:54.064Z,31.00
2023-04-03T02:24:54.076Z,32.30
2023-04-03T02:25:54.038Z,31.20
2023-04-03T02:26:54.018Z,31.90
2023-04-03T02:27:53.992Z,31.00
2023-04-03T02:28:54.013Z,32.00
2023-04-03T02:29:54.014Z,33.10
2023-04-03T02:30:54.037Z,32.70
2023-04-03T02:31:53.948Z,32.20
2023-04-03T02:32:53.936Z,32.30
2023-04-03T02:33:53.935Z,31.70
2023-04-03T02:34:53.898Z,31.60
2023-04-03T02:35:53.901Z,32.30
2023-04-03T02:36:53.892Z,32.60
2023-04-03T02:37:53.845Z,30.50
2023-04-03T02:38:53.826Z,32.40
2023-04-03T02:39:53.821Z,31.10
2023-04-03T02:40:53.811Z,30.70
2023-04-03T02:41:53.867Z,30.70
2023-04-03T02:42:53.779Z,30.70
2023-04-03T02:43:53.776Z,31.50
2023-04-03T02:44:53.766Z,32.30
2023-04-03T02:45:53.769Z,33.60
2023-04-03T02:46:53.730Z,32.30
2023-04-03T02:47:53.716Z,30.50
2023-04-03T02:48:53.701Z,33.10
2023-04-03T02:49:53.689Z,32.40
2023-04-03T02:50:53.720Z,32.90
2023-04-03T02:51:53.674Z,31.80
2023-04-03T02:52:53.660Z,30.30
2023-04-03T02:53:53.651Z,31.00
2023-04-03T02:54:53.682Z,32.20
2023-04-03T02:55:53.622Z,30.70
2023-04-03T02:56:53.638Z,32.10
2023-04-03T02:57:53.607Z,33.20
2023-04-03T02:58:53.584Z,31.50
2023-04-03T02:59:53.555Z,32.70
2023-04-03T03:00:53.564Z,31.20
2023-04-03T03:01:53.576Z,31.60
2023-04-03T03:02:53.650Z,30.30
2023-04-03T03:03:53.514Z,31.80
2023-04-03T03:04:53.518Z,31.40
2023-04-03T03:05:53.497Z,31.90
2023-04-03T03:06:53.523Z,31.30
2023-04-03T03:07:53.471Z,31.30
2023-04-03T03:08:53.453Z,31.00
2023-04-03T03:09:53.460Z,32.00
2023-04-03T03:10:53.478Z,30.50
2023-04-03T03:11:53.424Z,32.30
2023-04-03T03:12:53.410Z,31.00
2023-04-03T03:13:53.404Z,30.90
2023-04-03T03:14:53.379Z,32.30
2023-04-03T03:15:53.448Z,31.90
2023-04-03T03:16:53.350Z,31.80
2023-04-03T03:17:53.417Z,31.30
2023-04-03T03:18:53.318Z,32.00
2023-04-03T03:19:53.341Z,30.60
2023-04-03T03:20:53.305Z,34.30
2023-04-03T03:21:53.285Z,32.20
2023-04-03T03:22:53.296Z,31.80
2023-04-03T03:23:53.284Z,32.30
2023-04-03T03:24:53.240Z,32.70
2023-04-03T03:25:53.233Z,32.50
2023-04-03T03:26:53.236Z,33.40
2023-04-03T03:27:53.281Z,30.80
2023-04-03T03:28:53.250Z,31.30
2023-04-03T03:29:53.184Z,32.40
2023-04-03T03:30:53.177Z,30.80
2023-04-03T03:31:53.211Z,32.40
2023-04-03T03:32:53.192Z,32.50
2023-04-03T03:33:53.143Z,32.10
2023-04-03T03:34:53.152Z,30.20
2023-04-03T03:35:53.160Z,31.00
2023-04-03T03:36:53.085Z,34.40
2023-04-03T03:37:53.065Z,32.40
2023-04-03T03:38:53.073Z,31.50
2023-04-03T03:39:53.084Z,33.30
2023-04-03T03:40:53.058Z,31.40
2023-04-03T03:41:53.030Z,31.60
2023-04-03T03:42:53.007Z,31.60
2023-04-03T03:43:53.013Z,33.50
2023-04-03T03:44:53.003Z,34.60
2023-04-03T03:45:53.021Z,32.50
2023-04-03T03:46:53.016Z,32.50
2023-04-03T03:47:53.013Z,33.30
2023-04-03T03:48:52.980Z,33.90
2023-04-03T03:49:52.959Z,31.80
2023-04-03T03:50:52.989Z,32.70
2023-04-03T03:51:52.963Z,32.80
2023-04-03T03:52:52.901Z,31.20
2023-04-03T03:53:52.882Z,33.10
2023-04-03T03:54:52.902Z,31.60
2023-04-03T03:55:52.904Z,31.40
2023-04-03T03:56:52.910Z,31.80
2023-04-03T03:57:52.836Z,32.30
2023-04-03T03:58:52.826Z,32.90
2023-04-03T03:59:52.843Z,30.90
2023-04-03T04:00:52.819Z,32.50
2023-04-03T04:01:52.868Z,32.60
2023-04-03T04:02:52.858Z,32.20
2023-04-03T04:03:52.964Z,31.60
2023-04-03T04:04:52.791Z,30.80
2023-04-03T04:05:52.765Z,34.90
2023-04-03T04:06:52.749Z,33.10
2023-04-03T04:07:52.682Z,32.10
2023-04-03T04:08:52.704Z,32.80
2023-04-03T04:09:52.700Z,32.60
2023-04-03T04:10:52.692Z,32.60
2023-04-03T04:11:52.687Z,33.90
2023-04-03T04:12:52.702Z,32.60
2023-04-03T04:13:52.641Z,33.90
2023-04-03T04:14:52.658Z,32.10
2023-04-03T04:15:52.612Z,32.10
2023-04-03T04:16:52.684Z,32.20
2023-04-03T04:17:52.625Z,32.60
2023-04-03T04:18:52.578Z,32.70
2023-04-03T04:19:52.582Z,33.40
2023-04-03T04:20:52.562Z,32.50
2023-04-03T04:21:52.569Z,32.40
2023-04-03T04:22:52.512Z,32.00
2023-04-03T04:23:52.494Z,32.50
2023-04-03T04:24:52.532Z,33.20
2023-04-03T04:25:52.506Z,32.30
2023-04-03T04:26:52.476Z,32.00
2023-04-03T04:27:52.462Z,31.50
2023-04-03T04:28:52.441Z,32.50
2023-04-03T04:29:52.450Z,32.60
2023-04-03T04:30:52.509Z,33.20
2023-04-03T04:31:52.411Z,34.10
2023-04-03T04:32:52.456Z,34.00
2023-04-03T04:33:52.366Z,31.40
2023-04-03T04:34:52.475Z,32.00
2023-04-03T04:35:52.441Z,33.90
2023-04-03T04:36:52.447Z,31.70
2023-04-03T04:37:52.377Z,32.60
2023-04-03T04:38:52.314Z,32.60
2023-04-03T04:39:52.344Z,33.30
2023-04-03T04:40:52.310Z,31.50
2023-04-03T04:41:52.297Z,32.90
2023-04-03T04:42:52.288Z,32.70
2023-04-03T04:43:52.289Z,33.30
2023-04-03T04:44:52.264Z,32.70
2023-04-03T04:45:52.249Z,34.20
2023-04-03T04:46:52.238Z,33.60
2023-04-03T04:47:52.244Z,30.90
2023-04-03T04:48:52.227Z,34.10
2023-04-03T04:49:52.226Z,30.80
2023-04-03T04:50:52.188Z,34.10
2023-04-03T04:51:52.613Z,34.80
2023-04-03T04:52:52.133Z,32.60
2023-04-03T04:53:53.520Z,32.50
2023-04-03T04:54:52.144Z,33.70
2023-04-03T04:55:52.153Z,31.90
2023-04-03T04:56:52.149Z,31.60
2023-04-03T04:57:52.123Z,32.70
2023-04-03T04:58:52.153Z,33.80
2023-04-03T04:59:52.071Z,34.90
2023-04-03T05:00:52.058Z,32.80
2023-04-03T05:01:52.030Z,33.30
2023-04-03T05:02:52.074Z,31.40
2023-04-03T05:03:52.009Z,33.30
2023-04-03T05:04:52.003Z,33.30
2023-04-03T05:05:51.967Z,31.80
2023-04-03T05:06:51.991Z,33.70
2023-04-03T05:07:51.942Z,31.20
2023-04-03T05:08:52.003Z,33.60
2023-04-03T05:09:51.918Z,33.60
2023-04-03T05:10:53.653Z,33.70
2023-04-03T05:11:51.931Z,33.70
2023-04-03T05:12:51.899Z,33.10
2023-04-03T05:13:51.859Z,32.70
2023-04-03T05:14:51.912Z,32.40
2023-04-03T05:15:51.932Z,32.80
2023-04-03T05:16:52.704Z,33.80
2023-04-03T05:17:51.886Z,31.90
2023-04-03T05:18:51.817Z,32.10
2023-04-03T05:19:51.805Z,31.90
2023-04-03T05:20:51.824Z,30.80
2023-04-03T05:21:51.797Z,32.00
2023-04-03T05:22:51.756Z,31.90
2023-04-03T05:23:51.747Z,30.70
2023-04-03T05:24:51.754Z,32.30
2023-04-03T05:25:51.751Z,32.90
2023-04-03T05:26:51.710Z,31.80
2023-04-03T05:27:51.683Z,33.70
2023-04-03T05:28:51.692Z,33.40
2023-04-03T05:29:51.689Z,33.30
2023-04-03T05:30:51.669Z,33.40
2023-04-03T05:31:51.755Z,33.00
2023-04-03T05:32:51.773Z,31.20
2023-04-03T05:33:51.730Z,31.50
2023-04-03T05:35:47.689Z,30.50
2023-04-03T05:36:47.590Z,30.00
2023-04-03T05:37:47.566Z,31.40
2023-04-03T05:38:47.584Z,30.80
2023-04-03T05:39:47.550Z,31.20
2023-04-03T05:40:47.537Z,33.50
2023-04-03T05:41:47.517Z,31.30
2023-04-03T05:42:47.486Z,31.90
2023-04-03T05:43:47.499Z,31.20
2023-04-03T05:44:47.473Z,31.60
2023-04-03T05:45:47.530Z,29.70
2023-04-03T05:46:47.442Z,30.70
2023-04-03T05:47:47.474Z,31.70
2023-04-03T05:48:47.437Z,30.10
2023-04-03T05:49:47.416Z,30.50
2023-04-03T05:50:47.395Z,30.90
2023-04-03T05:51:47.394Z,31.20
2023-04-03T05:52:47.377Z,30.30
2023-04-03T05:53:47.376Z,33.40
2023-04-03T05:54:47.350Z,31.10
2023-04-03T05:55:47.348Z,32.40
2023-04-03T05:56:47.317Z,31.30
2023-04-03T05:57:47.312Z,29.30
2023-04-03T05:58:47.318Z,29.50
2023-04-03T05:59:47.312Z,29.70
2023-04-03T06:00:47.263Z,30.30
2023-04-03T06:01:47.319Z,30.50
2023-04-03T06:02:47.432Z,32.20
2023-04-03T06:03:47.407Z,31.60
2023-04-03T06:04:47.410Z,30.00
2023-04-03T06:05:47.209Z,31.00
2023-04-03T06:06:47.214Z,30.40
2023-04-03T06:07:47.189Z,29.20
2023-04-03T06:08:47.191Z,30.80
2023-04-03T06:09:47.181Z,30.80
2023-04-03T06:10:47.154Z,30.80
2023-04-03T06:11:47.142Z,30.70
2023-04-03T06:12:47.119Z,30.30
2023-04-03T06:13:47.122Z,30.10
2023-04-03T06:14:47.082Z,32.10
2023-04-03T06:15:47.087Z,34.50
2023-04-03T06:16:47.106Z,30.00
2023-04-03T06:17:47.086Z,30.30
2023-04-03T06:18:47.073Z,29.10
2023-04-03T06:19:47.051Z,30.00
2023-04-03T06:20:47.346Z,29.70
2023-04-03T06:21:47.009Z,30.30
2023-04-03T06:22:47.013Z,29.90
2023-04-03T06:23:47.009Z,29.90
2023-04-03T06:24:46.983Z,29.60
2023-04-03T06:25:46.979Z,28.70
2023-04-03T06:26:47.017Z,29.50
2023-04-03T06:27:46.939Z,28.70
2023-04-03T06:28:46.923Z,33.40
2023-04-03T06:29:46.905Z,29.30
2023-04-03T06:30:46.993Z,28.60
2023-04-03T06:31:46.902Z,30.10
2023-04-03T06:32:46.895Z,31.20
2023-04-03T06:33:46.845Z,30.10
2023-04-03T06:34:46.845Z,28.90
2023-04-03T06:35:46.959Z,31.80
2023-04-03T06:36:46.830Z,31.00
2023-04-03T06:37:46.935Z,29.60
2023-04-03T06:38:46.798Z,29.50
2023-04-03T06:39:46.782Z,31.30
2023-04-03T06:40:46.774Z,30.20
2023-04-03T06:41:46.759Z,30.90
2023-04-03T06:42:46.748Z,30.90
2023-04-03T06:43:46.725Z,29.00
2023-04-03T06:44:46.717Z,29.10
2023-04-03T06:45:46.728Z,28.80
2023-04-03T06:46:46.767Z,28.30
2023-04-03T06:47:46.764Z,28.90
2023-04-03T06:48:46.743Z,30.00
2023-04-03T06:49:46.683Z,27.40
2023-04-03T06:50:46.698Z,31.40
2023-04-03T06:51:46.698Z,28.60
2023-04-03T06:52:46.617Z,32.30
2023-04-03T06:53:46.601Z,30.70
2023-04-03T06:54:46.587Z,29.10
2023-04-03T06:55:46.564Z,29.50
2023-04-03T06:56:46.570Z,28.50
2023-04-03T06:57:46.578Z,30.30
2023-04-03T06:58:47.002Z,29.00
2023-04-03T06:59:46.550Z,27.90
2023-04-03T07:00:46.671Z,28.60
2023-04-03T07:01:46.522Z,28.50
2023-04-03T07:02:46.714Z,29.00
2023-04-03T07:03:46.483Z,30.00
2023-04-03T07:04:46.536Z,30.90
2023-04-03T07:05:46.469Z,31.00
2023-04-03T07:06:46.441Z,30.70
2023-04-03T07:07:46.412Z,28.50
2023-04-03T07:08:46.414Z,28.80
2023-04-03T07:09:46.404Z,27.00
2023-04-03T07:10:46.381Z,29.60
2023-04-03T07:11:46.359Z,26.80
2023-04-03T07:12:46.373Z,28.50
2023-04-03T07:13:46.364Z,29.60
2023-04-03T07:14:46.683Z,28.20
2023-04-03T07:15:46.335Z,30.90
2023-04-03T07:16:46.420Z,29.10
2023-04-03T07:17:46.325Z,28.20
2023-04-03T07:18:46.344Z,29.50
2023-04-03T07:19:46.328Z,28.10
2023-04-03T07:20:46.258Z,29.20
2023-04-03T07:21:46.258Z,29.50
2023-04-03T07:22:46.227Z,28.00
2023-04-03T07:23:46.272Z,29.60
2023-04-03T07:24:46.210Z,26.00
2023-04-03T07:25:46.187Z,29.10
2023-04-03T07:26:46.284Z,30.60
2023-04-03T07:27:46.253Z,31.00
2023-04-03T07:28:46.165Z,26.80
2023-04-03T07:29:46.148Z,30.60
2023-04-03T07:30:46.171Z,30.00
2023-04-03T07:31:46.139Z,27.20
2023-04-03T07:32:46.212Z,29.50
2023-04-03T07:33:46.183Z,27.10
2023-04-03T07:34:46.086Z,28.30
2023-04-03T07:35:46.109Z,30.70
2023-04-03T07:36:46.075Z,28.30
2023-04-03T07:37:46.054Z,28.40
2023-04-03T07:38:46.039Z,27.30
2023-04-03T07:39:46.080Z,27.30
2023-04-03T07:40:46.016Z,28.90
2023-04-03T07:41:46.007Z,28.80
2023-04-03T07:42:45.988Z,27.80
2023-04-03T07:43:46.004Z,26.40
2023-04-03T07:44:45.967Z,27.00
2023-04-03T07:45:45.994Z,28.10
2023-04-03T07:46:45.942Z,29.90
2023-04-03T07:47:45.960Z,29.70
2023-04-03T07:48:45.902Z,28.30
2023-04-03T07:49:45.880Z,27.40
2023-04-03T07:50:45.945Z,27.20
2023-04-03T07:51:45.860Z,28.40
2023-04-03T07:52:45.837Z,28.60
2023-04-03T07:53:45.910Z,27.70
2023-04-03T07:54:45.831Z,27.30
2023-04-03T07:55:45.828Z,30.90
2023-04-03T07:56:45.790Z,25.40
2023-04-03T07:57:45.788Z,26.60
2023-04-03T07:58:45.762Z,25.30
2023-04-03T07:59:45.814Z,27.10
2023-04-03T08:00:45.756Z,27.60
2023-04-03T08:01:45.754Z,26.70
2023-04-03T08:02:45.823Z,26.80
2023-04-03T08:03:45.915Z,30.20
2023-04-03T08:04:45.758Z,26.10
2023-04-03T08:05:45.691Z,27.40
2023-04-03T08:06:47.141Z,28.10
2023-04-03T08:07:45.652Z,25.90
2023-04-03T08:08:45.649Z,26.40
2023-04-03T08:09:45.641Z,29.60
2023-04-03T08:10:45.620Z,27.50
2023-04-03T08:11:45.696Z,27.20
2023-04-03T08:12:45.613Z,26.60
2023-04-03T08:13:45.594Z,26.80
2023-04-03T08:14:45.564Z,26.80
2023-04-03T08:15:45.548Z,26.40
2023-04-03T08:16:45.602Z,27.10
2023-04-03T08:17:45.594Z,27.60
2023-04-03T08:18:45.530Z,27.90
2023-04-03T08:19:45.507Z,25.80
2023-04-03T08:20:45.503Z,26.20
2023-04-03T08:21:45.490Z,25.60
2023-04-03T08:22:45.489Z,26.10
2023-04-03T08:23:45.453Z,29.10
2023-04-03T08:24:56.310Z,27.30
2023-04-03T08:25:46.433Z,26.40
2023-04-03T08:26:45.453Z,28.00
2023-04-03T08:27:45.447Z,25.90
2023-04-03T08:28:45.405Z,26.00
2023-04-03T08:29:45.392Z,25.20
2023-04-03T08:30:45.385Z,27.70
2023-04-03T08:31:45.362Z,25.90
2023-04-03T08:32:45.437Z,26.00
2023-04-03T08:33:45.342Z,25.40
2023-04-03T08:34:45.317Z,24.60
2023-04-03T08:35:45.460Z,26.60
2023-04-03T08:36:45.290Z,26.10
2023-04-03T08:37:45.284Z,27.10
2023-04-03T08:38:45.310Z,25.30
2023-04-03T08:39:45.229Z,25.40
2023-04-03T08:40:45.235Z,27.50
2023-04-03T08:41:45.208Z,25.50
2023-04-03T08:42:45.207Z,25.50
2023-04-03T08:43:45.232Z,26.40
2023-04-03T08:44:45.666Z,25.60
2023-04-03T08:45:45.207Z,27.80
2023-04-03T08:46:45.145Z,26.60
2023-04-03T08:47:45.187Z,24.20
2023-04-03T08:48:45.220Z,26.60
2023-04-03T08:49:45.191Z,24.20
2023-04-03T08:50:45.112Z,26.20
2023-04-03T08:51:45.074Z,24.80
2023-04-03T08:52:45.087Z,26.10
2023-04-03T08:53:45.066Z,24.30
2023-04-03T08:54:45.060Z,25.20
2023-04-03T08:55:45.026Z,26.10
2023-04-03T08:56:45.044Z,25.60
2023-04-03T08:57:45.003Z,26.30
2023-04-03T08:58:45.005Z,24.00
2023-04-03T08:59:44.980Z,24.70
2023-04-03T09:00:44.980Z,24.80
2023-04-03T09:01:45.036Z,23.50
2023-04-03T09:02:45.392Z,24.60
2023-04-03T09:03:45.012Z,23.70
2023-04-03T09:04:44.931Z,25.30
2023-04-03T09:05:44.937Z,24.50
2023-04-03T09:06:44.895Z,26.70
2023-04-03T09:07:44.884Z,24.80
2023-04-03T09:08:44.884Z,24.90
2023-04-03T09:09:44.857Z,22.90
2023-04-03T09:10:44.899Z,23.50
2023-04-03T09:11:44.846Z,24.50
2023-04-03T09:12:44.819Z,26.50
2023-04-03T09:13:44.810Z,24.80
2023-04-03T09:14:44.783Z,24.30
2023-04-03T09:15:44.810Z,23.90
2023-04-03T09:16:45.567Z,24.20
2023-04-03T09:17:44.884Z,26.00
2023-04-03T09:18:44.744Z,26.00
2023-04-03T09:19:44.755Z,26.30
2023-04-03T09:20:44.701Z,24.80
2023-04-03T09:21:44.710Z,24.70
2023-04-03T09:22:49.731Z,23.30
2023-04-03T09:23:45.670Z,24.70
2023-04-03T09:24:44.673Z,26.40
2023-04-03T09:25:44.660Z,27.00
2023-04-03T09:26:44.787Z,23.60
2023-04-03T09:27:44.627Z,23.70
2023-04-03T09:28:50.439Z,22.50
2023-04-03T09:29:45.584Z,26.10
2023-04-03T09:30:44.604Z,25.60
2023-04-03T09:31:44.615Z,24.40
2023-04-03T09:32:44.570Z,24.40
2023-04-03T09:33:44.562Z,24.10
2023-04-03T09:34:44.524Z,23.40
2023-04-03T09:35:48.603Z,24.40
2023-04-03T09:36:44.609Z,25.10
2023-04-03T09:37:45.279Z,22.50
2023-04-03T09:38:44.553Z,25.30
2023-04-03T09:39:44.461Z,25.90
2023-04-03T09:40:44.539Z,24.30
2023-04-03T09:41:44.440Z,25.50
2023-04-03T09:42:48.858Z,24.30
2023-04-03T09:43:45.408Z,25.70
2023-04-03T09:44:44.418Z,23.50
2023-04-03T09:45:44.385Z,23.10
2023-04-03T09:46:44.619Z,24.60
2023-04-03T09:47:44.433Z,22.20
2023-04-03T09:48:44.789Z,24.00
2023-04-03T09:49:44.342Z,23.00
2023-04-03T09:50:44.326Z,23.90
2023-04-03T09:51:44.417Z,24.80
2023-04-03T09:52:44.303Z,23.80
2023-04-03T09:53:44.291Z,22.20
2023-04-03T09:54:44.284Z,22.40
2023-04-03T09:55:44.298Z,23.50
2023-04-03T09:56:44.245Z,22.80
2023-04-03T09:57:44.240Z,23.70
2023-04-03T09:58:50.456Z,26.50
2023-04-03T09:59:45.269Z,22.40
2023-04-03T10:00:44.213Z,22.80
2023-04-03T10:01:44.181Z,22.70
2023-04-03T10:02:44.267Z,23.60
2023-04-03T10:03:44.147Z,23.00
2023-04-03T10:04:44.353Z,24.90
2023-04-03T10:05:44.124Z,23.40
2023-04-03T10:06:44.126Z,23.10
2023-04-03T10:07:48.673Z,24.20
2023-04-03T10:08:45.104Z,23.00
2023-04-03T10:09:44.100Z,22.70
2023-04-03T10:10:44.100Z,22.50
2023-04-03T10:11:44.070Z,24.60
2023-04-03T10:12:44.031Z,22.00
2023-04-03T10:13:50.811Z,23.20
2023-04-03T10:14:45.023Z,24.30
2023-04-03T10:15:43.989Z,21.90
2023-04-03T10:16:44.078Z,22.20
2023-04-03T10:17:43.990Z,22.10
2023-04-03T10:18:43.967Z,22.50
2023-04-03T10:19:43.937Z,22.80
2023-04-03T10:20:43.950Z,22.40
2023-04-03T10:21:43.941Z,23.00
2023-04-03T10:22:43.917Z,22.50
2023-04-03T10:23:43.906Z,22.80
2023-04-03T10:24:43.894Z,22.70
2023-04-03T10:25:43.865Z,22.90
2023-04-03T10:26:43.876Z,22.70
2023-04-03T10:27:43.854Z,25.10
2023-04-03T10:28:43.843Z,23.30
2023-04-03T10:29:43.834Z,22.90
2023-04-03T10:30:43.908Z,24.00
2023-04-03T10:31:43.805Z,25.80
2023-04-03T10:32:43.785Z,23.20
2023-04-03T10:33:43.792Z,24.70
2023-04-03T10:34:46.796Z,22.30
2023-04-03T10:35:44.862Z,23.00
2023-04-03T10:36:43.743Z,23.70
2023-04-03T10:37:43.715Z,23.20
2023-04-03T10:38:43.713Z,22.30
2023-04-03T10:39:43.676Z,23.20
2023-04-03T10:40:43.737Z,24.70
2023-04-03T10:41:43.657Z,24.10
2023-04-03T10:42:43.661Z,21.40
2023-04-03T10:43:43.619Z,23.80
2023-04-03T10:44:43.622Z,21.40
2023-04-03T10:45:43.633Z,21.30
2023-04-03T10:46:43.601Z,21.60
2023-04-03T10:47:43.622Z,22.40
2023-04-03T10:48:43.569Z,23.80
2023-04-03T10:49:49.907Z,21.90
2023-04-03T10:50:44.563Z,23.00
2023-04-03T10:51:43.546Z,23.30
2023-04-03T10:52:43.535Z,22.40
2023-04-03T10:53:43.490Z,23.00
2023-04-03T10:54:43.507Z,23.20
2023-04-03T10:55:43.473Z,22.30
2023-04-03T10:56:43.459Z,23.00
2023-04-03T10:57:43.496Z,24.00
2023-04-03T10:58:43.444Z,23.90
2023-04-03T10:59:43.463Z,24.80
2023-04-03T11:00:43.440Z,24.30
2023-04-03T11:01:43.447Z,24.00
2023-04-03T11:02:43.506Z,22.70
2023-04-03T11:03:43.517Z,22.90
2023-04-03T11:04:43.377Z,22.60
2023-04-03T11:05:43.344Z,22.50
2023-04-03T11:06:43.376Z,25.30
2023-04-03T11:07:43.322Z,25.90
2023-04-03T11:08:43.410Z,23.90
2023-04-03T11:09:43.327Z,23.90
2023-04-03T11:10:43.301Z,23.20
2023-04-03T11:11:43.289Z,25.90
2023-04-03T11:12:43.267Z,22.90
2023-04-03T11:13:43.251Z,23.10
2023-04-03T11:14:43.236Z,22.50
2023-04-03T11:15:43.266Z,22.70
2023-04-03T11:16:47.394Z,23.20
2023-04-03T11:17:44.216Z,22.20
2023-04-03T11:18:43.182Z,22.20
2023-04-03T11:19:43.187Z,23.00
2023-04-03T11:20:43.223Z,22.60
2023-04-03T11:21:43.158Z,21.90
2023-04-03T11:22:43.119Z,22.70
2023-04-03T11:23:49.455Z,21.90
2023-04-03T11:24:44.156Z,24.00
2023-04-03T11:25:44.419Z,22.60
2023-04-03T11:26:43.076Z,24.00
2023-04-03T11:27:43.084Z,22.10
2023-04-03T11:28:43.054Z,23.20
2023-04-03T11:29:43.034Z,22.00
2023-04-03T11:30:43.026Z,22.70
2023-04-03T11:31:43.035Z,21.60
2023-04-03T11:32:43.094Z,23.20
2023-04-03T11:33:42.987Z,22.70
2023-04-03T11:34:42.987Z,22.20
2023-04-03T11:35:50.059Z,22.40
2023-04-03T11:36:42.959Z,23.60
2023-04-03T11:37:42.933Z,22.00
2023-04-03T11:38:42.930Z,22.90
2023-04-03T11:39:42.907Z,21.90
2023-04-03T11:40:42.894Z,23.50
2023-04-03T11:41:42.917Z,21.30
2023-04-03T11:42:43.004Z,20.50
2023-04-03T11:43:42.852Z,20.90
2023-04-03T11:44:42.845Z,20.60
2023-04-03T11:45:42.838Z,20.40
2023-04-03T11:46:42.921Z,20.60
2023-04-03T11:47:42.804Z,21.00
2023-04-03T11:48:42.787Z,20.70
2023-04-03T11:49:42.783Z,20.40
2023-04-03T11:50:42.760Z,20.20
2023-04-03T11:51:42.771Z,20.20
2023-04-03T11:52:44.357Z,20.30
2023-04-03T11:53:42.749Z,20.30
2023-04-03T11:54:45.182Z,20.80
2023-04-03T11:55:42.699Z,19.90
2023-04-03T11:56:42.686Z,21.80
2023-04-03T11:57:42.703Z,22.00
2023-04-03T11:58:42.656Z,21.90
2023-04-03T11:59:42.652Z,21.10
2023-04-03T12:00:42.616Z,21.30
2023-04-03T12:01:42.642Z,21.00
2023-04-03T12:02:53.749Z,22.30
2023-04-03T12:03:43.729Z,22.70
2023-04-03T12:04:42.638Z,24.00
2023-04-03T12:05:42.591Z,23.00
2023-04-03T12:06:42.545Z,21.80
2023-04-03T12:07:42.541Z,22.50
2023-04-03T12:08:42.526Z,22.30
2023-04-03T12:09:42.529Z,24.40
2023-04-03T12:10:42.534Z,22.20
2023-04-03T12:11:42.500Z,22.20
2023-04-03T12:12:42.467Z,23.80
2023-04-03T12:13:42.452Z,22.80
2023-04-03T12:14:42.452Z,23.70
2023-04-03T12:15:42.426Z,21.20
2023-04-03T12:16:42.436Z,21.60
2023-04-03T12:17:42.501Z,21.40
2023-04-03T12:18:42.402Z,23.30
2023-04-03T12:19:43.237Z,21.80
2023-04-03T12:20:42.380Z,22.60
2023-04-03T12:21:42.373Z,22.20
2023-04-03T12:22:42.355Z,22.50
2023-04-03T12:23:42.322Z,21.50
2023-04-03T12:24:42.323Z,22.90
2023-04-03T12:25:42.316Z,23.50
2023-04-03T12:26:48.640Z,23.00
2023-04-03T12:27:43.317Z,23.20
2023-04-03T12:28:42.257Z,22.30
2023-04-03T12:29:43.854Z,23.60
2023-04-03T12:30:42.297Z,23.40
2023-04-03T12:31:42.225Z,25.10
2023-04-03T12:32:42.315Z,23.10
2023-04-03T12:33:42.224Z,22.30
2023-04-03T12:34:42.230Z,23.30
2023-04-03T12:35:42.229Z,22.80
2023-04-03T12:36:42.161Z,22.90
2023-04-03T12:37:42.211Z,20.90
2023-04-03T12:38:42.186Z,23.70
2023-04-03T12:39:42.151Z,23.40
2023-04-03T12:40:42.106Z,21.40
2023-04-03T12:41:42.135Z,21.80
2023-04-03T12:42:42.073Z,21.90
2023-04-03T12:43:42.149Z,23.00
2023-04-03T12:44:42.109Z,22.20
2023-04-03T12:45:42.061Z,21.40
2023-04-03T12:46:42.125Z,20.80
2023-04-03T12:47:42.047Z,21.90
2023-04-03T12:48:42.026Z,21.30
2023-04-03T12:49:42.004Z,22.60
2023-04-03T12:50:41.981Z,20.50
2023-04-03T12:51:41.986Z,21.90
2023-04-03T12:52:41.991Z,21.60
2023-04-03T12:53:41.957Z,23.80